Flight Track Log - Related Links

Times and Time Zones

All times are in EDT time to prevent confusion due to time zone crossing. See the TAM3387 flight status page for this flight to view local times or setup timezone preferences in your user account.

Time Position Orientation Groundspeed Altitude Reporting Facility
EDT Latitude Longitude Course Direction KTS MPH feet Rate Location/Type
Thu 06:40:00 AM -4.1360 -48.2399 175° South  Level Estimated
Thu 06:41:00 AM -4.2420 -48.2308 175° South  Level Estimated
Thu 06:42:00 AM -4.3481 -48.2216 175° South  Level Estimated
Thu 06:43:00 AM -4.4734 -48.2108 175° South  Level Estimated
Thu 06:44:00 AM -4.5986 -48.2001 175° South  Level Estimated
Thu 06:45:00 AM -4.7239 -48.1893 175° South  Level Estimated
Thu 06:46:00 AM -4.8492 -48.1785 175° South  Level Estimated
Thu 06:47:00 AM -4.9745 -48.1677 175° South  Level Estimated
Thu 06:48:00 AM -5.0999 -48.1569 175° South  Level Estimated
Thu 06:49:00 AM -5.2252 -48.1461 175° South  Level Estimated
Thu 06:50:00 AM -5.3505 -48.1353 175° South  Level Estimated
Thu 06:51:00 AM -5.4757 -48.1244 175° South  Level Estimated
Thu 06:52:00 AM -5.6010 -48.1136 175° South  Level Estimated
Thu 06:53:00 AM -5.7263 -48.1028 175° South  Level Estimated
Thu 06:54:00 AM -5.8517 -48.0920 175° South  Level Estimated
Thu 06:55:00 AM -5.9770 -48.0811 175° South  Level Estimated
Thu 06:56:00 AM -6.1023 -48.0703 175° South  Level Estimated
Thu 06:57:00 AM -6.2276 -48.0594 175° South  Level Estimated
Thu 06:58:00 AM -6.3528 -48.0486 175° South  Level Estimated
Thu 06:59:00 AM -6.4781 -48.0377 175° South  Level Estimated
Thu 07:00:00 AM -6.6034 -48.0269 175° South  Level Estimated
Thu 07:01:00 AM -6.7288 -48.0160 175° South  Level Estimated
Thu 07:02:00 AM -6.8541 -48.0051 175° South  Level Estimated
Thu 07:03:00 AM -6.9794 -47.9943 175° South  Level Estimated
Thu 07:04:00 AM -7.1047 -47.9834 175° South  Level Estimated
Thu 07:05:00 AM -7.2299 -47.9725 175° South  Level Estimated
Thu 07:06:00 AM -7.3552 -47.9616 175° South  Level Estimated
Thu 07:07:00 AM -7.4805 -47.9507 175° South  Level Estimated
Thu 07:08:00 AM -7.6059 -47.9398 175° South  Level Estimated
Thu 07:09:00 AM -7.7312 -47.9289 175° South  Level Estimated
Thu 07:10:00 AM -7.8565 -47.9179 175° South  Level Estimated
Thu 07:11:00 AM -7.9818 -47.9070 175° South  Level Estimated
Thu 07:12:00 AM -8.1070 -47.8961 175° South  Level Estimated
Thu 07:13:00 AM -8.2324 -47.8852 175° South  Level Estimated
Thu 07:14:00 AM -8.3576 -47.8742 175° South  Level Estimated
Thu 07:15:00 AM -8.4830 -47.8633 175° South  Level Estimated
Thu 07:16:00 AM -8.6082 -47.8523 175° South  Level Estimated
Thu 07:17:00 AM -8.7336 -47.8413 175° South  Level Estimated
Thu 07:18:00 AM -8.8588 -47.8303 175° South  Level Estimated
Thu 07:19:00 AM -8.9841 -47.8194 175° South  Level Estimated
Thu 07:20:00 AM -9.1095 -47.8084 175° South  Level Estimated
Thu 07:21:00 AM -9.2347 -47.7974 175° South  Level Estimated
Thu 07:22:00 AM -9.3601 -47.7864 175° South  Level Estimated
Thu 07:23:00 AM -9.4853 -47.7753 175° South  Level Estimated
Thu 07:24:00 AM -9.6106 -47.7643 175° South  Level Estimated
Thu 07:25:00 AM -9.7359 -47.7533 175° South  Level Estimated
Thu 07:26:00 AM -9.8612 -47.7423 175° South  Level Estimated
Thu 07:27:00 AM -9.9865 -47.7312 175° South  Level Estimated
Thu 07:28:00 AM -10.1118 -47.7201 175° South  Level Estimated
Thu 07:29:00 AM -10.2371 -47.7091 175° South  Level Estimated
Thu 07:30:00 AM -10.3624 -47.6980 175° South  Level Estimated
Thu 07:31:00 AM -10.4877 -47.6869 175° South  Level Estimated
Thu 07:32:00 AM -10.6130 -47.6758 175° South  Level Estimated
Thu 07:33:00 AM -10.7382 -47.6647 175° South  Level Estimated
Thu 07:34:00 AM -10.8635 -47.6536 175° South  Level Estimated
Thu 07:35:00 AM -10.9888 -47.6425 175° South  Level Estimated
Thu 07:36:00 AM -11.1141 -47.6314 175° South  Level Estimated
Thu 07:37:00 AM -11.2394 -47.6203 175° South  Level Estimated
Thu 07:38:00 AM -11.3647 -47.6091 175° South  Level Estimated
Thu 07:39:00 AM -11.4900 -47.5979 175° South  Level Estimated
Thu 07:40:00 AM -11.6153 -47.5868 175° South  Level Estimated
Thu 07:41:00 AM -11.7406 -47.5756 175° South  Level Estimated
Thu 07:42:00 AM -11.8659 -47.5644 175° South  Level Estimated
Thu 07:43:00 AM -11.9911 -47.5532 175° South  Level Estimated
Thu 07:44:00 AM -12.1164 -47.5420 175° South  Level Estimated
Thu 07:45:00 AM -12.2417 -47.5308 175° South  Level Estimated
Thu 07:46:00 AM -12.3670 -47.5195 175° South  Level Estimated
Thu 07:47:00 AM -12.4923 -47.5083 175° South  Level Estimated
Thu 07:48:00 AM -12.6176 -47.4971 175° South  Level Estimated
Thu 07:49:00 AM -12.7429 -47.4858 175° South  Level Estimated
Thu 07:50:00 AM -12.8681 -47.4745 175° South  Level Estimated
Thu 07:51:00 AM -12.9934 -47.4632 175° South  Level Estimated
Thu 07:52:00 AM -13.1187 -47.4519 175° South  Level Estimated
Thu 07:53:00 AM -13.2440 -47.4406 175° South  Level Estimated
Thu 07:54:00 AM -13.3693 -47.4293 175° South  Level Estimated
Thu 07:55:00 AM -13.4945 -47.4180 175° South  Level Estimated
Thu 07:56:00 AM -13.6198 -47.4066 175° South  Level Estimated
Thu 07:57:00 AM -13.7451 -47.3953 175° South  Level Estimated
Thu 07:58:00 AM -13.8704 -47.3839 175° South  Level Estimated
Thu 07:59:00 AM -13.9957 -47.3725 175° South  Level Estimated
Thu 08:00:00 AM -14.1209 -47.3611 175° South  Level Estimated
Thu 08:01:00 AM -14.2462 -47.3498 175° South  Level Estimated
Thu 08:02:00 AM -14.3715 -47.3383 175° South  Level Estimated
Thu 08:03:00 AM -14.4968 -47.3269 175° South  Level Estimated
Thu 08:04:00 AM -14.6221 -47.3155 175° South  Level Estimated
Thu 08:05:00 AM -14.7473 -47.3040 175° South  Level Estimated
Thu 08:06:00 AM -14.8726 -47.2925 175° South  Level Estimated
Thu 08:07:00 AM -14.9979 -47.2811 175° South  Level Estimated
Thu 08:08:00 AM -15.1232 -47.2696 175° South  Level Estimated
Thu 08:09:00 AM -15.2485 -47.2580 175° South  Level Estimated
Thu 08:10:00 AM -15.3737 -47.2465 175° South  Level Estimated
Thu 08:11:00 AM -15.4990 -47.2350 175° South  Level Estimated
Thu 08:12:00 AM -15.6243 -47.2234 175° South  Level Estimated
Thu 08:13:00 AM -15.7495 -47.2119 175° South  Level Estimated
Thu 08:14:00 AM -15.8748 -47.2003 175° South  Level Estimated
Thu 08:15:00 AM -16.0001 -47.1887 175° South  Level Estimated
Thu 08:16:00 AM -16.1253 -47.1771 175° South  Level Estimated
Thu 08:17:00 AM -16.2506 -47.1655 175° South  Level Estimated
Thu 08:18:00 AM -16.3759 -47.1538 175° South  Level Estimated
Thu 08:19:00 AM -16.5012 -47.1422 175° South  Level Estimated
Thu 08:20:00 AM -16.6264 -47.1305 175° South  Level Estimated
Thu 08:21:00 AM -16.7517 -47.1188 175° South  Level Estimated
Thu 08:22:00 AM -16.8770 -47.1071 175° South  Level Estimated
Thu 08:23:00 AM -17.0022 -47.0954 175° South  Level Estimated
Thu 08:24:00 AM -17.1275 -47.0837 175° South  Level Estimated
Thu 08:25:00 AM -17.2528 -47.0719 175° South  Level Estimated
Thu 08:26:00 AM -17.3780 -47.0602 175° South  Level Estimated
Thu 08:27:00 AM -17.5033 -47.0484 175° South  Level Estimated
Thu 08:28:00 AM -17.6285 -47.0366 175° South  Level Estimated
Thu 08:29:00 AM -17.7538 -47.0248 175° South  Level Estimated
Thu 08:30:00 AM -17.8790 -47.0130 175° South  Level Estimated
Thu 08:31:00 AM -18.0043 -47.0011 175° South  Level Estimated
Thu 08:32:00 AM -18.1296 -46.9893 175° South  Level Estimated
Thu 08:33:00 AM -18.2548 -46.9774 175° South  Level Estimated
Thu 08:34:00 AM -18.3801 -46.9655 175° South  Level Estimated
Thu 08:35:00 AM -18.5054 -46.9536 175° South  Level Estimated
Thu 08:36:00 AM -18.6306 -46.9417 175° South  Level Estimated
Thu 08:37:00 AM -18.7559 -46.9297 175° South  Level Estimated
Thu 08:38:00 AM -18.8811 -46.9177 175° South  Level Estimated
Thu 08:39:00 AM -19.0064 -46.9058 175° South  Level Estimated
Thu 08:40:00 AM -19.1316 -46.8938 175° South  Level Estimated
Thu 08:41:00 AM -19.2569 -46.8817 175° South  Level Estimated
Thu 08:42:00 AM -19.3821 -46.8697 175° South  Level Estimated
Thu 08:43:00 AM -19.5074 -46.8576 175° South  Level Estimated
Thu 08:44:00 AM -19.6326 -46.8456 175° South  Level Estimated
Thu 08:45:00 AM -19.7579 -46.8335 175° South  Level Estimated
Thu 08:46:00 AM -19.8831 -46.8214 175° South  Level Estimated
Thu 08:47:00 AM -20.0084 -46.8092 175° South  Level Estimated
Thu 08:48:00 AM -20.1336 -46.7971 175° South  Level Estimated
Thu 08:49:00 AM -20.2589 -46.7849 175° South  Level Estimated
Thu 08:50:00 AM -20.3841 -46.7727 175° South  Level Estimated
Thu 08:51:00 AM -20.5093 -46.7605 175° South  Level Estimated
Thu 08:52:00 AM -20.6346 -46.7483 175° South  Level Estimated
Thu 08:53:00 AM -20.7598 -46.7360 175° South  Level Estimated
Thu 08:54:00 AM -20.8851 -46.7238 175° South  Level Estimated
Thu 08:55:00 AM -21.0103 -46.7115 175° South  Level Estimated
Thu 08:56:00 AM -21.1355 -46.6992 175° South  Level Estimated
Thu 08:57:00 AM -21.2608 -46.6868 175° South  Level Estimated
Thu 08:58:00 AM -21.3860 -46.6745 175° South  Level Estimated
Thu 08:59:00 AM -21.5113 -46.6621 175° South  Level Estimated
Thu 09:00:00 AM -21.6365 -46.6497 175° South  Level Estimated
Thu 09:01:00 AM -21.7617 -46.6373 175° South  Level Estimated
Thu 09:02:00 AM -21.8870 -46.6249 175° South  Level Estimated
Thu 09:03:00 AM -22.0122 -46.6124 175° South  Level Estimated
Thu 09:04:00 AM -22.1374 -46.5999 175° South  Level Estimated
Thu 09:05:00 AM -22.2627 -46.5874 175° South  Level Estimated
Thu 09:06:00 AM -22.3879 -46.5749 175° South  Level Estimated
Thu 09:07:00 AM -22.5131 -46.5623 175° South  Level Estimated
Thu 09:08:00 AM -22.6383 -46.5498 175° South  Level Estimated
Thu 09:09:00 AM -22.7636 -46.5372 175° South  Level Estimated
Thu 09:10:00 AM -22.8888 -46.5245 175° South  Level Estimated
Thu 09:11:00 AM -23.0140 -46.5119 175° South  Level Estimated
Thu 09:12:00 AM -23.1393 -46.4992 175° South  Level Estimated
Thu 09:13:00 AM -23.2645 -46.4865 175° South  Level Estimated
Thu 09:14:00 AM -23.3897 -46.4738 175° South  Level Estimated
Thu 09:15:00 AM -23.4321 -46.4695 175° South  Level Estimated
Thu 09:16:00 AM -23.4321 -46.4695 190° South  Level Estimated
Thu 09:17:00 AM -23.4321 -46.4695 350° North  Level Estimated
Thu 09:18:00 AM -23.4321 -46.4695 350° North  Level Estimated
Thu 09:19:00 AM -23.4321 -46.4695 350° North  Level Estimated
Thu 09:20:00 AM -23.4321 -46.4695 350° North  Level Estimated
Thu 09:21:00 AM -23.4321 -46.4695 350° North  Level Estimated
Thu 09:22:00 AM -23.4321 -46.4695 350° North  Level Estimated
Thu 09:23:00 AM -23.4321 -46.4695 350° North  Level Estimated
Thu 09:24:00 AM -23.4321 -46.4695 350° North  Level Estimated
Thu 09:25:00 AM -23.4321 -46.4695 350° North  Level Estimated
Thu 09:26:00 AM -23.4321 -46.4695 350° North  Level Estimated

Login

Don't have an account? Register now (free) for customized features, flight alerts, and more!